Time;durP1;ratioP1;P1;durP2;ratioP2;P2;SDS_P1;SDS_P2;PMS_P1;PMS_P2;Temp;Humidity;BMP_temperature;BMP_pressure;BME280_temperature;BME280_humidity;BME280_pressure;Samples;Min_cycle;Max_cycle;Signal;HPM_P1;HPM_P2
2023/06/10 00:00:46;;;;;;;9.82;4.50;;;17.10;99.90;;;;;;5024790;28;20383;-67
2023/06/10 00:03:12;;;;;;;9.98;4.75;;;17.10;99.90;;;;;;5020600;28;20049;-67
2023/06/10 00:05:38;;;;;;;9.40;4.45;;;17.00;99.90;;;;;;5002351;28;20045;-67
2023/06/10 00:08:08;;;;;;;12.23;4.57;;;17.00;99.90;;;;;;5019630;28;20528;-67
2023/06/10 00:10:35;;;;;;;12.68;4.60;;;17.00;99.90;;;;;;5025409;28;20402;-67
2023/06/10 00:13:02;;;;;;;11.85;4.32;;;17.00;99.90;;;;;;5022175;28;20422;-67
2023/06/10 00:15:28;;;;;;;10.23;4.18;;;16.90;99.90;;;;;;5017412;28;20061;-67
2023/06/10 00:17:54;;;;;;;9.23;4.53;;;16.90;99.90;;;;;;5015553;28;20034;-67
2023/06/10 00:20:21;;;;;;;10.23;4.55;;;16.90;99.90;;;;;;5021142;28;20406;-68
2023/06/10 00:22:48;;;;;;;11.63;5.07;;;16.90;99.90;;;;;;5024355;28;20526;-67
2023/06/10 00:25:15;;;;;;;10.10;4.70;;;16.80;99.90;;;;;;5006092;28;20088;-67
2023/06/10 00:27:41;;;;;;;8.50;4.20;;;16.80;99.90;;;;;;5022332;28;20048;-68
2023/06/10 00:30:07;;;;;;;9.48;4.68;;;16.80;99.90;;;;;;5023543;28;20045;-67
2023/06/10 00:32:34;;;;;;;11.93;5.10;;;16.70;99.90;;;;;;5019721;28;20499;-67
2023/06/10 00:34:59;;;;;;;10.35;4.97;;;16.70;99.90;;;;;;5022906;28;20120;-68
2023/06/10 00:37:25;;;;;;;12.57;5.10;;;16.70;99.90;;;;;;5018992;28;20049;-67
2023/06/10 00:39:51;;;;;;;12.18;4.97;;;16.60;99.90;;;;;;5020448;28;20080;-67
2023/06/10 00:42:17;;;;;;;13.15;5.00;;;16.60;99.90;;;;;;5017236;28;20066;-67
2023/06/10 00:44:42;;;;;;;11.00;5.03;;;16.60;99.90;;;;;;5021987;28;20052;-67
2023/06/10 00:47:08;;;;;;;15.05;4.97;;;16.60;99.90;;;;;;5025429;28;20042;-67
2023/06/10 00:49:34;;;;;;;10.70;4.90;;;16.50;99.90;;;;;;5005160;28;20081;-67
2023/06/10 00:52:02;;;;;;;12.45;5.28;;;16.50;99.90;;;;;;5021228;28;20041;-67
2023/06/10 00:54:28;;;;;;;12.75;6.28;;;16.50;99.90;;;;;;5022652;28;20049;-67
2023/06/10 00:56:55;;;;;;;12.55;5.75;;;16.40;99.90;;;;;;5017764;28;20034;-72
2023/06/10 00:59:20;;;;;;;11.93;5.65;;;16.40;99.90;;;;;;5011442;28;20889;-72
2023/06/10 01:01:49;;;;;;;12.48;5.63;;;16.30;99.90;;;;;;5010910;28;20269;-72
2023/06/10 01:04:17;;;;;;;12.73;6.05;;;16.30;99.90;;;;;;5008135;28;20074;-72
2023/06/10 01:06:57;;;;;;;11.00;5.40;;;16.30;99.90;;;;;;5010552;28;20494;-71
2023/06/10 01:09:52;;;;;;;12.98;5.78;;;16.30;99.90;;;;;;5014424;28;20041;-72
2023/06/10 01:12:50;;;;;;;10.43;5.53;;;16.20;99.90;;;;;;5016982;28;20046;-72
2023/06/10 01:15:16;;;;;;;16.00;5.00;;;16.20;99.90;;;;;;5018738;28;20103;-71
2023/06/10 01:18:02;;;;;;;12.93;5.22;;;16.20;99.90;;;;;;5022891;28;20041;-71
2023/06/10 01:20:31;;;;;;;12.63;5.32;;;16.20;99.90;;;;;;5018902;28;20042;-71
2023/06/10 01:22:58;;;;;;;10.40;5.57;;;16.20;99.90;;;;;;5015730;28;20052;-71
2023/06/10 01:25:28;;;;;;;13.15;5.57;;;16.20;99.90;;;;;;4998677;28;20042;-72
2023/06/10 01:28:15;;;;;;;11.60;6.00;;;16.10;99.90;;;;;;5021579;28;20450;-71
2023/06/10 01:31:07;;;;;;;10.30;5.25;;;16.10;99.90;;;;;;5015088;28;20095;-71
2023/06/10 01:33:39;;;;;;;13.35;5.85;;;16.10;99.90;;;;;;5022106;28;20056;-71
2023/06/10 01:36:05;;;;;;;12.00;5.22;;;16.10;99.90;;;;;;5021367;28;20275;-72
2023/06/10 01:38:39;;;;;;;13.65;6.00;;;16.00;99.90;;;;;;5015585;28;20047;-71
2023/06/10 01:41:06;;;;;;;12.13;6.22;;;16.00;99.90;;;;;;5016095;28;20056;-72
2023/06/10 01:43:34;;;;;;;14.68;6.13;;;16.00;99.90;;;;;;5019108;28;20056;-71
2023/06/10 01:46:00;;;;;;;10.85;5.78;;;16.00;99.90;;;;;;5004992;28;20053;-72
2023/06/10 01:48:27;;;;;;;14.15;5.53;;;15.90;99.90;;;;;;5015894;28;20046;-71
2023/06/10 01:50:52;;;;;;;11.25;4.95;;;15.90;99.90;;;;;;5017443;28;20044;-71
2023/06/10 01:53:19;;;;;;;11.55;5.13;;;15.90;99.90;;;;;;5023811;28;20306;-72
2023/06/10 01:55:44;;;;;;;13.02;5.28;;;15.80;99.90;;;;;;5022563;28;20041;-71
2023/06/10 01:58:10;;;;;;;12.10;5.32;;;15.80;99.90;;;;;;5021164;28;20041;-72
2023/06/10 02:00:36;;;;;;;12.00;5.53;;;15.70;99.90;;;;;;5013167;28;20045;-72
2023/06/10 02:03:01;;;;;;;14.10;4.82;;;15.70;99.90;;;;;;5017846;28;20519;-72
2023/06/10 02:05:27;;;;;;;12.30;4.72;;;15.60;99.90;;;;;;5015470;28;20101;-72
2023/06/10 02:07:53;;;;;;;8.90;4.43;;;15.60;99.90;;;;;;5005210;28;20413;-72
2023/06/10 02:10:19;;;;;;;10.52;4.80;;;15.60;99.90;;;;;;5018629;28;20639;-72
2023/06/10 02:12:44;;;;;;;10.82;4.68;;;15.60;99.90;;;;;;5019500;28;20053;-71
2023/06/10 02:15:10;;;;;;;10.38;4.65;;;15.50;99.90;;;;;;5024273;28;20045;-72
2023/06/10 02:17:36;;;;;;;10.63;4.80;;;15.50;99.90;;;;;;5020699;28;20490;-72
2023/06/10 02:20:04;;;;;;;10.82;4.50;;;15.40;99.90;;;;;;5023902;28;20061;-71
2023/06/10 02:22:29;;;;;;;11.10;4.57;;;15.40;99.90;;;;;;5018854;28;20052;-72
2023/06/10 02:24:55;;;;;;;13.38;4.35;;;15.40;99.90;;;;;;5016580;28;20053;-72
2023/06/10 02:27:21;;;;;;;9.75;3.97;;;15.30;99.90;;;;;;5019682;28;20119;-72
2023/06/10 02:29:47;;;;;;;13.05;4.78;;;15.30;99.90;;;;;;5020403;28;20417;-71
2023/06/10 02:32:12;;;;;;;13.98;4.57;;;15.30;99.90;;;;;;5019842;28;20107;-72
2023/06/10 02:34:38;;;;;;;10.05;4.32;;;15.30;99.90;;;;;;5018464;28;20108;-72
2023/06/10 02:37:04;;;;;;;15.00;5.30;;;15.20;99.90;;;;;;5020438;28;20091;-72
2023/06/10 02:39:30;;;;;;;9.75;4.38;;;15.20;99.90;;;;;;5023036;28;20049;-72
2023/06/10 02:41:55;;;;;;;9.55;4.30;;;15.20;99.90;;;;;;5018512;28;20389;-72
2023/06/10 02:44:21;;;;;;;10.60;4.43;;;15.20;99.90;;;;;;5022017;28;20519;-72
2023/06/10 02:46:47;;;;;;;9.65;4.03;;;15.20;99.90;;;;;;5022692;28;20548;-72
2023/06/10 02:49:13;;;;;;;12.20;4.07;;;15.20;99.90;;;;;;5027391;28;20044;-71
2023/06/10 02:51:39;;;;;;;10.25;4.55;;;15.20;99.90;;;;;;5022549;28;20483;-72
2023/06/10 02:54:04;;;;;;;12.32;4.65;;;15.10;99.90;;;;;;5010133;28;20037;-72
2023/06/10 02:56:31;;;;;;;11.00;4.50;;;15.10;99.90;;;;;;5023347;28;20068;-71
2023/06/10 02:58:57;;;;;;;10.88;3.92;;;15.10;99.90;;;;;;5018938;28;20057;-72
2023/06/10 03:01:23;;;;;;;8.90;4.50;;;15.00;99.90;;;;;;5020881;28;20092;-72
2023/06/10 03:03:50;;;;;;;8.82;3.90;;;15.00;99.90;;;;;;5024446;28;20045;-72
2023/06/10 03:06:16;;;;;;;9.85;4.32;;;14.90;99.90;;;;;;5022682;28;20383;-71
2023/06/10 03:08:42;;;;;;;11.40;4.32;;;14.90;99.90;;;;;;5025788;28;20115;-72
2023/06/10 03:11:08;;;;;;;10.68;4.40;;;14.90;99.90;;;;;;5022002;28;20041;-72
2023/06/10 03:13:34;;;;;;;10.50;4.25;;;14.90;99.90;;;;;;5024599;28;20056;-71
2023/06/10 03:16:00;;;;;;;9.85;4.22;;;14.90;99.90;;;;;;5021690;28;20049;-72
2023/06/10 03:18:27;;;;;;;13.18;4.55;;;14.90;99.90;;;;;;5025355;28;20036;-67
2023/06/10 03:20:54;;;;;;;14.38;4.20;;;14.90;99.90;;;;;;5021503;28;20049;-66
2023/06/10 03:23:21;;;;;;;8.70;4.20;;;14.90;99.90;;;;;;5039930;28;20084;-67
2023/06/10 03:25:46;;;;;;;10.75;4.18;;;14.90;99.90;;;;;;5026181;28;20076;-67
2023/06/10 03:28:12;;;;;;;13.75;5.43;;;14.90;99.90;;;;;;5025938;28;20073;-67
2023/06/10 03:30:38;;;;;;;11.50;4.57;;;14.90;99.90;;;;;;5021546;28;20049;-67
2023/06/10 03:33:03;;;;;;;11.20;3.97;;;14.90;99.90;;;;;;5025603;28;20604;-66
2023/06/10 03:35:31;;;;;;;11.18;4.70;;;14.80;99.90;;;;;;5021339;28;20077;-67
2023/06/10 03:37:57;;;;;;;12.00;3.85;;;14.80;99.90;;;;;;5023782;28;20041;-67
2023/06/10 03:40:23;;;;;;;12.45;4.40;;;14.80;99.90;;;;;;5019564;28;20054;-67
2023/06/10 03:42:49;;;;;;;9.55;3.80;;;14.80;99.90;;;;;;5013034;28;20050;-67
2023/06/10 03:45:14;;;;;;;10.43;4.18;;;14.80;99.90;;;;;;5021064;28;20052;-67
2023/06/10 03:47:40;;;;;;;13.25;4.72;;;14.80;99.90;;;;;;5021398;28;20511;-67
2023/06/10 03:50:10;;;;;;;13.82;4.55;;;14.80;99.90;;;;;;5020138;28;20087;-67
2023/06/10 03:52:37;;;;;;;10.10;4.40;;;14.80;99.90;;;;;;5002924;28;20046;-67
2023/06/10 03:55:03;;;;;;;13.07;4.40;;;14.80;99.90;;;;;;5024602;28;20363;-67
2023/06/10 03:57:29;;;;;;;14.63;4.85;;;14.80;99.90;;;;;;5020000;28;20081;-67
2023/06/10 03:59:56;;;;;;;10.68;4.22;;;14.70;99.90;;;;;;5025537;28;20083;-67
2023/06/10 04:02:22;;;;;;;12.32;4.60;;;14.70;99.90;;;;;;5018671;28;20046;-67
2023/06/10 04:04:48;;;;;;;14.02;4.88;;;14.70;99.90;;;;;;5015227;28;20045;-66
2023/06/10 04:07:14;;;;;;;9.23;4.35;;;14.70;99.90;;;;;;5006657;28;20041;-67
2023/06/10 04:09:40;;;;;;;13.88;5.03;;;14.70;99.90;;;;;;5016183;28;20041;-67
2023/06/10 04:12:08;;;;;;;12.85;5.05;;;14.70;99.90;;;;;;5022603;28;20067;-67
2023/06/10 04:14:37;;;;;;;12.70;4.85;;;14.60;99.90;;;;;;5025852;28;20049;-67
2023/06/10 04:17:06;;;;;;;15.35;5.53;;;14.60;99.90;;;;;;5007217;28;20072;-67
2023/06/10 04:19:32;;;;;;;15.85;5.53;;;14.60;99.90;;;;;;5019776;28;20045;-67
2023/06/10 04:22:00;;;;;;;13.05;5.05;;;14.60;99.90;;;;;;5016295;28;20139;-66
2023/06/10 04:24:26;;;;;;;12.32;5.18;;;14.60;99.90;;;;;;5024434;28;20077;-67
2023/06/10 04:26:52;;;;;;;13.77;4.95;;;14.70;99.90;;;;;;5017325;28;20057;-67
2023/06/10 04:29:18;;;;;;;16.88;5.60;;;14.60;99.90;;;;;;5024581;28;20042;-67
2023/06/10 04:31:45;;;;;;;14.45;5.43;;;14.70;99.90;;;;;;5024635;28;20453;-67
2023/06/10 04:34:11;;;;;;;16.58;5.22;;;14.70;99.90;;;;;;5006697;28;20527;-67
2023/06/10 04:36:37;;;;;;;11.68;5.60;;;14.80;99.90;;;;;;5017052;28;20046;-67
2023/06/10 04:39:02;;;;;;;13.30;4.70;;;15.10;99.90;;;;;;5024809;28;20042;-67
2023/06/10 04:41:28;;;;;;;11.93;4.90;;;15.40;99.90;;;;;;5021481;28;20045;-68
2023/06/10 04:43:54;;;;;;;12.38;4.80;;;15.80;99.90;;;;;;5005752;28;20144;-67
2023/06/10 04:46:19;;;;;;;13.50;5.00;;;16.10;99.90;;;;;;5014594;28;20171;-67
2023/06/10 04:48:46;;;;;;;13.63;4.95;;;16.40;99.90;;;;;;5023345;28;20102;-68
2023/06/10 04:51:13;;;;;;;11.05;4.10;;;16.70;99.90;;;;;;5012019;28;20104;-67
2023/06/10 04:53:39;;;;;;;12.00;4.75;;;17.00;99.90;;;;;;5033077;28;20056;-67
2023/06/10 04:56:04;;;;;;;12.15;4.25;;;17.20;99.90;;;;;;5022203;28;20041;-67
2023/06/10 04:58:30;;;;;;;10.73;4.57;;;17.40;99.90;;;;;;5003479;28;20501;-67
2023/06/10 05:00:56;;;;;;;10.73;4.50;;;17.60;99.90;;;;;;5018460;28;20052;-67
2023/06/10 05:03:21;;;;;;;12.15;4.80;;;17.90;99.90;;;;;;5016379;28;20068;-67
2023/06/10 05:05:47;;;;;;;11.65;4.22;;;18.10;99.90;;;;;;5014179;28;20505;-67
2023/06/10 05:08:12;;;;;;;13.88;4.60;;;18.20;99.90;;;;;;5018467;28;20512;-68
2023/06/10 05:10:38;;;;;;;11.48;4.88;;;18.40;99.90;;;;;;5017374;28;20112;-67
2023/06/10 05:13:04;;;;;;;10.85;4.35;;;18.50;99.90;;;;;;5019813;28;20104;-67
2023/06/10 05:15:30;;;;;;;11.18;4.28;;;18.60;99.90;;;;;;5019217;28;20123;-67
2023/06/10 05:17:58;;;;;;;10.20;3.90;;;18.70;99.90;;;;;;5020235;28;20110;-67
2023/06/10 05:20:25;;;;;;;12.40;4.55;;;18.90;99.90;;;;;;5017826;28;20045;-68
2023/06/10 05:22:50;;;;;;;11.55;4.38;;;19.00;99.90;;;;;;5005381;28;20132;-67
2023/06/10 05:25:16;;;;;;;12.10;4.25;;;19.20;99.90;;;;;;5014528;28;20586;-67
2023/06/10 05:27:42;;;;;;;11.57;4.50;;;19.20;99.90;;;;;;5017277;28;20037;-68
2023/06/10 05:30:10;;;;;;;13.95;4.90;;;19.20;99.90;;;;;;5014595;28;20117;-67
2023/06/10 05:32:36;;;;;;;9.88;4.63;;;19.10;99.90;;;;;;5017843;28;20042;-67
2023/06/10 05:35:03;;;;;;;10.27;4.57;;;18.80;99.90;;;;;;5021471;28;20062;-67
2023/06/10 05:37:29;;;;;;;12.35;4.60;;;18.60;99.90;;;;;;5023364;28;20107;-67
2023/06/10 05:39:55;;;;;;;13.70;4.85;;;18.40;99.90;;;;;;5021702;28;20042;-67
2023/06/10 05:42:20;;;;;;;10.35;4.78;;;18.20;99.90;;;;;;5023204;28;20071;-67
2023/06/10 05:44:46;;;;;;;13.90;4.90;;;18.00;99.90;;;;;;5022071;28;20077;-67
2023/06/10 05:47:12;;;;;;;9.40;4.00;;;17.80;99.90;;;;;;5014717;28;20052;-66
2023/06/10 05:49:38;;;;;;;12.95;5.00;;;17.60;99.90;;;;;;5014865;28;20038;-66
2023/06/10 05:52:04;;;;;;;11.98;4.75;;;17.50;99.90;;;;;;4997813;28;20050;-67
2023/06/10 05:54:29;;;;;;;14.60;5.07;;;17.40;99.90;;;;;;5005621;28;20046;-67
2023/06/10 05:56:55;;;;;;;12.50;4.85;;;17.40;99.90;;;;;;5011418;28;20631;-66
2023/06/10 05:59:22;;;;;;;11.73;4.97;;;17.30;99.90;;;;;;5001402;28;20041;-67
2023/06/10 06:01:49;;;;;;;15.98;5.20;;;17.30;99.90;;;;;;5010052;28;20443;-66
2023/06/10 06:04:16;;;;;;;15.50;5.75;;;17.40;99.90;;;;;;5008140;28;20046;-66
2023/06/10 06:06:41;;;;;;;13.40;4.90;;;17.60;99.90;;;;;;5009991;28;20049;-67
2023/06/10 06:09:07;;;;;;;11.23;4.45;;;17.90;99.90;;;;;;5004948;28;20142;-67
2023/06/10 06:11:34;;;;;;;12.05;5.20;;;18.10;99.90;;;;;;4989789;28;20133;-67
2023/06/10 06:14:00;;;;;;;15.07;5.10;;;18.20;99.90;;;;;;5007408;28;20044;-67
2023/06/10 06:16:26;;;;;;;12.15;4.68;;;18.40;99.90;;;;;;5007893;28;20050;-67
2023/06/10 06:18:52;;;;;;;10.48;4.72;;;18.70;99.90;;;;;;5012571;28;20037;-67
2023/06/10 06:21:17;;;;;;;11.63;4.70;;;19.00;99.90;;;;;;5010778;28;20833;-67
2023/06/10 06:23:43;;;;;;;11.95;5.32;;;19.30;99.90;;;;;;5017732;28;20095;-66
2023/06/10 06:26:09;;;;;;;12.15;4.80;;;19.30;99.90;;;;;;5018405;28;20046;-67
2023/06/10 06:28:35;;;;;;;13.23;5.32;;;19.10;99.90;;;;;;5012866;28;20041;-67
2023/06/10 06:31:01;;;;;;;12.77;5.20;;;18.90;99.90;;;;;;5012249;28;21399;-67
2023/06/10 06:33:27;;;;;;;11.63;5.05;;;18.70;99.90;;;;;;5013885;28;20506;-67
2023/06/10 06:35:52;;;;;;;9.23;4.53;;;18.60;99.90;;;;;;5017153;28;20051;-67
2023/06/10 06:38:18;;;;;;;11.32;5.28;;;18.40;99.90;;;;;;5015169;28;20403;-67
2023/06/10 06:40:44;;;;;;;12.48;4.78;;;18.30;99.90;;;;;;5009051;28;20317;-67
2023/06/10 06:43:10;;;;;;;15.10;5.38;;;18.20;99.90;;;;;;5014579;28;20045;-67
2023/06/10 06:45:35;;;;;;;11.85;4.57;;;18.10;99.90;;;;;;5010811;28;20045;-67
2023/06/10 06:48:01;;;;;;;13.40;4.80;;;18.10;99.90;;;;;;5009586;28;20540;-67
2023/06/10 06:50:27;;;;;;;10.32;5.22;;;18.10;99.90;;;;;;5004732;28;20172;-66
2023/06/10 06:52:52;;;;;;;12.38;4.50;;;18.00;99.90;;;;;;5005274;28;20049;-66
2023/06/10 06:55:19;;;;;;;13.45;4.90;;;18.00;99.90;;;;;;5000996;28;20053;-67
2023/06/10 06:57:45;;;;;;;12.52;4.68;;;18.00;99.90;;;;;;5008823;28;20126;-67
2023/06/10 07:00:11;;;;;;;14.85;5.30;;;17.90;99.90;;;;;;5008527;28;20136;-67
2023/06/10 07:02:36;;;;;;;14.85;4.65;;;17.90;99.90;;;;;;4999411;28;20057;-67
2023/06/10 07:05:03;;;;;;;13.77;4.47;;;17.90;99.90;;;;;;4993727;28;20049;-67
2023/06/10 07:07:29;;;;;;;12.57;4.80;;;17.90;99.90;;;;;;5009353;28;20065;-67
2023/06/10 07:09:54;;;;;;;10.73;4.38;;;17.90;99.90;;;;;;5008223;28;20132;-67
2023/06/10 07:12:23;;;;;;;12.93;4.28;;;18.00;99.90;;;;;;5007927;28;20080;-67
2023/06/10 07:14:50;;;;;;;12.82;4.68;;;18.10;99.90;;;;;;5009942;28;20045;-67
2023/06/10 07:17:17;;;;;;;12.68;5.10;;;18.10;99.90;;;;;;5003671;28;20541;-67
2023/06/10 07:19:44;;;;;;;11.75;4.70;;;18.20;99.90;;;;;;5007097;28;20046;-67
2023/06/10 07:22:09;;;;;;;11.57;4.45;;;18.40;99.90;;;;;;5015599;28;20506;-67
2023/06/10 07:24:35;;;;;;;8.50;4.05;;;18.50;99.90;;;;;;5010626;28;20050;-67
2023/06/10 07:27:01;;;;;;;11.30;4.50;;;18.60;99.90;;;;;;5013500;28;20042;-67
2023/06/10 07:29:26;;;;;;;11.38;4.65;;;18.70;99.90;;;;;;5010081;28;20112;-68
2023/06/10 07:31:53;;;;;;;10.43;4.57;;;18.90;99.90;;;;;;4984377;28;20041;-67
2023/06/10 07:34:19;;;;;;;10.40;4.97;;;19.00;99.90;;;;;;5013990;28;21517;-68
2023/06/10 07:36:45;;;;;;;9.80;4.13;;;19.20;99.90;;;;;;5008032;28;20049;-67
2023/06/10 07:39:11;;;;;;;11.63;4.35;;;19.30;99.90;;;;;;5011476;28;20042;-67
2023/06/10 07:41:36;;;;;;;10.32;4.45;;;19.40;99.90;;;;;;5013115;28;20498;-67
2023/06/10 07:44:02;;;;;;;9.13;3.88;;;19.50;99.90;;;;;;5011672;28;20120;-68
2023/06/10 07:46:28;;;;;;;11.85;4.60;;;19.60;99.90;;;;;;5014514;28;20794;-67
2023/06/10 07:48:54;;;;;;;13.55;4.22;;;19.70;99.90;;;;;;5012358;28;20049;-67
2023/06/10 07:51:21;;;;;;;8.35;3.67;;;19.90;99.90;;;;;;5016500;28;20044;-67
2023/06/10 07:53:47;;;;;;;9.32;4.20;;;20.00;99.90;;;;;;5015513;28;20379;-67
2023/06/10 07:56:13;;;;;;;8.43;4.13;;;20.10;99.90;;;;;;5013786;28;20103;-67
2023/06/10 07:58:38;;;;;;;8.35;4.18;;;20.20;99.90;;;;;;5010377;28;20326;-67
2023/06/10 08:01:05;;;;;;;9.07;4.20;;;20.30;99.90;;;;;;5011273;28;20064;-67
2023/06/10 08:03:30;;;;;;;7.88;3.88;;;20.40;99.90;;;;;;5014052;28;20878;-67
2023/06/10 08:05:56;;;;;;;7.18;3.70;;;20.40;99.90;;;;;;5019347;28;20061;-68
2023/06/10 08:08:22;;;;;;;9.68;3.83;;;20.50;99.90;;;;;;5013938;28;20205;-67
2023/06/10 08:10:49;;;;;;;8.63;4.18;;;20.70;99.90;;;;;;5013749;28;20405;-67
2023/06/10 08:13:15;;;;;;;10.07;4.20;;;20.70;99.90;;;;;;5012260;28;20045;-68
2023/06/10 08:15:40;;;;;;;8.82;3.95;;;20.70;99.90;;;;;;5015089;28;20405;-68
2023/06/10 08:18:06;;;;;;;11.65;4.30;;;20.80;99.90;;;;;;5033327;28;20096;-68
2023/06/10 08:20:32;;;;;;;9.15;3.97;;;20.80;99.90;;;;;;5013846;28;20041;-68
2023/06/10 08:22:58;;;;;;;11.50;4.40;;;20.80;99.90;;;;;;5016013;28;20041;-67
2023/06/10 08:25:23;;;;;;;11.35;4.10;;;20.90;99.90;;;;;;5016609;28;20088;-68
2023/06/10 08:27:50;;;;;;;9.07;3.63;;;20.90;99.90;;;;;;5033885;28;20493;-67
2023/06/10 08:30:16;;;;;;;9.50;4.43;;;21.00;99.90;;;;;;5016369;28;20117;-68
2023/06/10 08:32:42;;;;;;;8.55;3.85;;;21.20;99.90;;;;;;5000748;28;20058;-67
2023/06/10 08:35:08;;;;;;;8.55;3.90;;;21.30;99.90;;;;;;5014648;28;20633;-68
2023/06/10 08:37:34;;;;;;;9.43;3.88;;;21.40;99.90;;;;;;5012868;28;20466;-68
2023/06/10 08:39:59;;;;;;;7.75;3.40;;;21.50;99.90;;;;;;5008819;28;20156;-68
2023/06/10 08:42:33;;;;;;;11.10;4.35;;;21.50;99.90;;;;;;5011569;28;20038;-68
2023/06/10 08:45:01;;;;;;;10.52;3.58;;;21.50;99.90;;;;;;5017382;28;20095;-68
2023/06/10 08:47:31;;;;;;;9.07;3.33;;;21.60;99.90;;;;;;5009441;28;20057;-67
2023/06/10 08:50:03;;;;;;;9.43;3.90;;;21.70;99.90;;;;;;5008303;28;20045;-68
2023/06/10 08:52:35;;;;;;;9.95;3.38;;;21.70;99.90;;;;;;5007419;28;20046;-68
2023/06/10 08:55:10;;;;;;;8.75;4.28;;;21.80;99.90;;;;;;5004230;28;20223;-67
2023/06/10 08:57:36;;;;;;;11.05;3.97;;;21.80;99.90;;;;;;5007090;28;20060;-67
2023/06/10 09:00:04;;;;;;;8.77;4.00;;;21.90;99.90;;;;;;5013393;28;20063;-68
2023/06/10 09:02:35;;;;;;;10.25;3.67;;;22.00;99.90;;;;;;5014908;28;20640;-67
2023/06/10 09:05:01;;;;;;;8.77;3.30;;;22.00;99.90;;;;;;5012194;28;20037;-71
2023/06/10 09:07:31;;;;;;;8.52;3.83;;;22.10;99.90;;;;;;5016972;28;20140;-71
2023/06/10 09:09:58;;;;;;;8.18;3.53;;;22.10;99.90;;;;;;5004520;28;20072;-70
2023/06/10 09:12:24;;;;;;;9.65;3.78;;;22.10;99.90;;;;;;5022892;28;20049;-70
2023/06/10 09:14:50;;;;;;;9.15;3.40;;;22.20;99.90;;;;;;5014483;28;20045;-72
2023/06/10 09:17:17;;;;;;;9.05;3.85;;;22.30;99.90;;;;;;5015730;28;20037;-71
2023/06/10 09:19:44;;;;;;;7.57;3.15;;;22.30;99.90;;;;;;5015940;28;20049;-70
2023/06/10 09:22:11;;;;;;;7.45;3.33;;;22.30;99.90;;;;;;5006740;28;20493;-71
2023/06/10 09:24:37;;;;;;;8.00;3.30;;;22.40;99.90;;;;;;5017711;28;20566;-71
2023/06/10 09:27:07;;;;;;;10.70;3.85;;;22.40;99.90;;;;;;5013085;28;20037;-71
2023/06/10 09:30:06;;;;;;;8.15;3.22;;;22.50;99.90;;;;;;5017001;28;20049;-71
2023/06/10 09:32:38;;;;;;;10.05;3.42;;;22.50;99.90;;;;;;5022730;28;20433;-71
2023/06/10 09:35:09;;;;;;;7.40;3.63;;;22.60;99.90;;;;;;5018281;28;20313;-71
2023/06/10 09:37:38;;;;;;;10.43;3.10;;;22.70;99.90;;;;;;5019838;28;20057;-70
2023/06/10 09:40:05;;;;;;;8.10;3.55;;;22.80;99.90;;;;;;5018763;28;20049;-71
2023/06/10 09:42:38;;;;;;;7.90;3.20;;;22.80;99.90;;;;;;5021520;28;20045;-71
2023/06/10 09:45:07;;;;;;;6.95;3.03;;;22.90;99.90;;;;;;5023198;28;20428;-71
2023/06/10 09:47:32;;;;;;;10.60;3.28;;;22.90;99.90;;;;;;5018504;28;20049;-71
2023/06/10 09:49:58;;;;;;;7.18;3.28;;;23.00;99.90;;;;;;5021971;28;20281;-72
2023/06/10 09:52:25;;;;;;;8.38;3.25;;;23.00;99.90;;;;;;5016069;28;20074;-71
2023/06/10 09:54:52;;;;;;;8.68;3.30;;;23.00;99.90;;;;;;5027355;28;20057;-70
2023/06/10 09:57:21;;;;;;;8.70;3.72;;;23.00;99.90;;;;;;5021517;28;20162;-71
2023/06/10 09:59:47;;;;;;;7.38;3.50;;;23.10;99.90;;;;;;5024508;28;20441;-71
2023/06/10 10:02:19;;;;;;;8.43;3.20;;;23.10;99.90;;;;;;5022627;28;20103;-71
2023/06/10 10:04:44;;;;;;;7.40;3.50;;;23.20;99.90;;;;;;5031740;28;20049;-72
2023/06/10 10:07:11;;;;;;;8.88;3.03;;;23.20;99.90;;;;;;5018304;28;20063;-71
2023/06/10 10:09:38;;;;;;;11.10;3.40;;;23.20;99.90;;;;;;5026776;28;20130;-70
2023/06/10 10:12:12;;;;;;;11.40;3.97;;;23.30;99.90;;;;;;5020302;28;20053;-71
2023/06/10 10:14:38;;;;;;;8.63;3.42;;;23.20;99.90;;;;;;5012135;28;20038;-71
2023/06/10 10:17:11;;;;;;;9.35;3.33;;;23.20;99.90;;;;;;5021494;28;20133;-71
2023/06/10 10:19:53;;;;;;;8.43;3.53;;;23.30;99.90;;;;;;5022385;28;20045;-72
2023/06/10 10:22:26;;;;;;;8.75;3.53;;;23.20;99.90;;;;;;5027134;28;20038;-73
2023/06/10 10:24:55;;;;;;;7.57;3.40;;;23.30;99.90;;;;;;5001556;28;20049;-72
2023/06/10 10:27:30;;;;;;;11.75;3.92;;;23.30;99.90;;;;;;5006143;28;20410;-73
2023/06/10 10:29:58;;;;;;;7.13;3.00;;;23.30;99.90;;;;;;5016831;28;20049;-72
2023/06/10 10:32:39;;;;;;;8.38;3.20;;;23.40;99.90;;;;;;5015011;28;20143;-72
2023/06/10 10:35:13;;;;;;;10.15;3.13;;;23.40;99.90;;;;;;5011892;28;20045;-72
2023/06/10 10:37:39;;;;;;;8.20;3.30;;;23.40;99.90;;;;;;5014509;28;20132;-73
2023/06/10 10:40:06;;;;;;;8.95;3.67;;;23.50;99.90;;;;;;5017595;28;20082;-73
2023/06/10 10:42:33;;;;;;;9.23;2.78;;;23.50;99.90;;;;;;5004166;28;20049;-73
2023/06/10 10:44:59;;;;;;;6.70;3.50;;;23.50;99.90;;;;;;5016441;28;20042;-73
2023/06/10 10:47:29;;;;;;;9.07;3.40;;;23.50;99.90;;;;;;5016127;28;20689;-72
2023/06/10 10:49:58;;;;;;;8.87;2.90;;;23.50;99.90;;;;;;5016611;28;20033;-72
2023/06/10 10:52:25;;;;;;;7.97;2.75;;;23.60;99.90;;;;;;4994208;28;20308;-71
2023/06/10 10:54:53;;;;;;;7.10;3.00;;;23.60;99.90;;;;;;5006894;28;20333;-73
2023/06/10 10:57:23;;;;;;;9.88;3.47;;;23.70;99.90;;;;;;5010704;28;20046;-72
2023/06/10 10:59:48;;;;;;;8.02;3.08;;;23.80;99.90;;;;;;4993909;28;20057;-73
2023/06/10 11:02:35;;;;;;;5.85;2.78;;;23.90;99.90;;;;;;5009232;28;20045;-72
2023/06/10 11:05:01;;;;;;;7.47;2.72;;;24.00;99.90;;;;;;5007084;28;20049;-73
2023/06/10 11:07:32;;;;;;;7.68;2.83;;;24.00;99.60;;;;;;5012914;28;20057;-72
2023/06/10 11:10:11;;;;;;;6.32;2.78;;;24.10;99.90;;;;;;5014306;28;20052;-73
2023/06/10 11:12:46;;;;;;;6.93;2.83;;;24.20;99.50;;;;;;5017960;28;20053;-73
2023/06/10 11:15:12;;;;;;;7.82;2.78;;;24.20;99.90;;;;;;5018924;28;20514;-73
2023/06/10 11:18:14;;;;;;;8.15;3.00;;;24.30;96.30;;;;;;5005840;28;20124;-72
2023/06/10 11:20:49;;;;;;;9.52;3.13;;;24.40;98.30;;;;;;5019041;28;20041;-73
2023/06/10 11:23:36;;;;;;;8.30;3.08;;;24.40;97.80;;;;;;5016430;28;20052;-73
2023/06/10 11:26:34;;;;;;;11.20;4.13;;;24.40;98.10;;;;;;5012594;28;20128;-73
2023/06/10 11:28:59;;;;;;;8.30;3.13;;;24.50;97.30;;;;;;5021664;28;20046;-72
2023/06/10 11:31:43;;;;;;;9.93;3.30;;;24.50;98.40;;;;;;5009622;28;20556;-73
2023/06/10 11:34:09;;;;;;;9.68;3.15;;;24.60;98.20;;;;;;4998249;28;21196;-73
2023/06/10 11:36:40;;;;;;;5.47;3.05;;;24.60;97.90;;;;;;5014818;28;20049;-73
2023/06/10 11:39:06;;;;;;;6.60;3.05;;;24.70;98.00;;;;;;5016853;28;20084;-73
2023/06/10 11:41:34;;;;;;;10.18;3.13;;;24.70;97.70;;;;;;5005555;28;20821;-74
2023/06/10 11:44:07;;;;;;;9.18;3.13;;;24.80;95.90;;;;;;5002710;28;20048;-72
2023/06/10 11:46:33;;;;;;;7.78;3.42;;;24.80;96.60;;;;;;4985357;28;20046;-74
2023/06/10 11:49:00;;;;;;;7.45;3.15;;;24.80;96.10;;;;;;5005458;28;20733;-74
2023/06/10 11:51:27;;;;;;;9.35;3.30;;;24.80;95.70;;;;;;5002600;28;20164;-74
2023/06/10 11:53:53;;;;;;;8.77;3.28;;;24.80;96.80;;;;;;5010589;28;20156;-74
2023/06/10 11:56:23;;;;;;;11.85;3.30;;;24.80;97.10;;;;;;5008381;28;20111;-73
2023/06/10 11:58:57;;;;;;;7.35;2.80;;;24.80;97.10;;;;;;5003305;28;20056;-73
2023/06/10 12:01:25;;;;;;;8.75;3.17;;;24.90;96.40;;;;;;5003434;28;20037;-73
2023/06/10 12:04:02;;;;;;;8.68;2.88;;;24.90;95.30;;;;;;5011275;28;20360;-73
2023/06/10 12:06:44;;;;;;;8.98;3.28;;;25.00;94.70;;;;;;5007907;28;20046;-73
2023/06/10 12:09:36;;;;;;;6.53;2.75;;;25.00;94.40;;;;;;5007138;28;20383;-73
2023/06/10 12:12:05;;;;;;;9.20;3.28;;;25.00;94.00;;;;;;5008371;28;20053;-73
2023/06/10 12:14:54;;;;;;;9.18;3.20;;;25.00;95.10;;;;;;5024236;28;20148;-73
2023/06/10 12:17:32;;;;;;;9.18;3.78;;;25.10;95.70;;;;;;5001272;28;20054;-73
2023/06/10 12:19:59;;;;;;;10.73;3.30;;;25.10;95.70;;;;;;5013471;28;20127;-73
2023/06/10 12:22:26;;;;;;;7.45;2.92;;;25.10;96.00;;;;;;5010876;28;20080;-73
2023/06/10 12:25:02;;;;;;;6.80;2.85;;;25.10;95.40;;;;;;5030366;28;20391;-73
2023/06/10 12:27:30;;;;;;;7.47;3.30;;;25.10;95.80;;;;;;5009605;28;20107;-72
2023/06/10 12:30:01;;;;;;;9.05;3.25;;;25.10;96.00;;;;;;5012777;28;20048;-73
2023/06/10 12:32:44;;;;;;;8.02;2.72;;;25.10;96.10;;;;;;5010892;28;20045;-68
2023/06/10 12:35:21;;;;;;;8.25;3.15;;;25.20;95.60;;;;;;5081773;27;20520;-67
2023/06/10 12:38:01;;;;;;;8.55;3.03;;;25.10;95.00;;;;;;5082316;28;20502;-67
2023/06/10 12:40:36;;;;;;;7.18;3.33;;;25.20;94.70;;;;;;5082794;28;20076;-67
2023/06/10 12:43:02;;;;;;;8.68;3.30;;;25.20;95.30;;;;;;5070914;28;20105;-68
2023/06/10 12:45:32;;;;;;;9.65;2.78;;;25.30;95.60;;;;;;5069708;28;20566;-68